Time;durP1;ratioP1;P1;durP2;ratioP2;P2;SDS_P1;SDS_P2;PMS_P1;PMS_P2;Temp;Humidity;BMP_temperature;BMP_pressure;BME280_temperature;BME280_humidity;BME280_pressure;Samples;Min_cycle;Max_cycle;Signal;HPM_P1;HPM_P2
2021/06/15 00:02:26;;;;;;;7.50;4.20;;;17.50;99.60;;;;;;5061234;28;20024;-78
2021/06/15 00:04:52;;;;;;;7.40;3.78;;;17.40;99.70;;;;;;5061045;28;20115;-78
2021/06/15 00:07:18;;;;;;;7.47;3.83;;;17.40;99.50;;;;;;5061859;28;20120;-78
2021/06/15 00:09:46;;;;;;;8.00;3.83;;;17.40;99.60;;;;;;5061717;28;20063;-78
2021/06/15 00:12:16;;;;;;;14.40;4.53;;;17.40;99.90;;;;;;5063970;28;20040;-78
2021/06/15 00:14:44;;;;;;;11.32;4.40;;;17.30;99.90;;;;;;5062675;28;21031;-78
2021/06/15 00:17:10;;;;;;;8.48;4.03;;;17.30;99.90;;;;;;5062184;28;20033;-78
2021/06/15 00:19:35;;;;;;;9.68;4.10;;;17.30;99.90;;;;;;5062864;28;20025;-78
2021/06/15 00:22:01;;;;;;;9.35;3.97;;;17.20;99.90;;;;;;5061309;28;20085;-78
2021/06/15 00:24:27;;;;;;;9.38;4.28;;;17.20;99.90;;;;;;5061339;28;20048;-79
2021/06/15 00:26:52;;;;;;;6.45;4.00;;;17.20;99.90;;;;;;5060263;28;20093;-79
2021/06/15 00:29:20;;;;;;;6.70;3.78;;;17.10;99.90;;;;;;5060780;28;20032;-79
2021/06/15 00:31:46;;;;;;;8.45;4.40;;;17.10;99.90;;;;;;5060561;28;20189;-79
2021/06/15 00:34:12;;;;;;;7.45;4.00;;;17.10;99.90;;;;;;5060643;28;20745;-78
2021/06/15 00:36:42;;;;;;;10.55;4.32;;;17.10;99.90;;;;;;5059213;28;20028;-78
2021/06/15 00:39:08;;;;;;;8.10;4.18;;;17.10;99.90;;;;;;5062040;28;20068;-78
2021/06/15 00:41:34;;;;;;;12.80;4.50;;;17.10;99.90;;;;;;5058895;28;20063;-78
2021/06/15 00:43:59;;;;;;;13.23;4.72;;;17.00;99.90;;;;;;5064145;28;20055;-78
2021/06/15 00:46:25;;;;;;;5.68;3.70;;;17.00;99.90;;;;;;5061122;28;20031;-78
2021/06/15 00:48:53;;;;;;;11.50;3.95;;;17.00;99.90;;;;;;5062078;28;20477;-78
2021/06/15 00:51:18;;;;;;;13.10;4.85;;;17.00;99.90;;;;;;5060444;28;20107;-78
2021/06/15 00:53:47;;;;;;;6.57;3.83;;;17.00;99.90;;;;;;5051946;28;20518;-78
2021/06/15 00:56:14;;;;;;;7.40;4.07;;;16.90;99.90;;;;;;5040475;28;20040;-79
2021/06/15 00:58:40;;;;;;;7.82;4.30;;;17.00;99.90;;;;;;5058054;28;20033;-78
2021/06/15 01:01:07;;;;;;;7.40;3.80;;;16.90;99.90;;;;;;5056304;28;20051;-78
2021/06/15 01:03:33;;;;;;;7.82;4.18;;;16.90;99.90;;;;;;5071563;28;20048;-76
2021/06/15 01:06:01;;;;;;;7.60;3.63;;;16.90;99.90;;;;;;5052838;28;20024;-79
2021/06/15 01:08:37;;;;;;;6.05;3.67;;;16.90;99.90;;;;;;5058134;28;20035;-78
2021/06/15 01:11:15;;;;;;;6.28;4.00;;;16.90;99.90;;;;;;5049656;28;20365;-79
2021/06/15 01:14:05;;;;;;;7.78;4.53;;;16.90;99.90;;;;;;5060784;28;20107;-78
2021/06/15 01:16:54;;;;;;;6.75;3.95;;;16.90;99.90;;;;;;5059635;28;20028;-79
2021/06/15 01:19:23;;;;;;;6.85;4.10;;;16.90;99.90;;;;;;5060255;28;20043;-78
2021/06/15 01:22:01;;;;;;;7.43;3.97;;;16.90;99.90;;;;;;5054898;28;20697;-79
2021/06/15 01:24:42;;;;;;;7.03;3.60;;;16.90;99.90;;;;;;5052528;28;20036;-78
2021/06/15 01:27:22;;;;;;;9.88;4.13;;;16.90;99.90;;;;;;5053691;28;20028;-78
2021/06/15 01:29:50;;;;;;;7.63;3.80;;;16.90;99.90;;;;;;5054182;28;20088;-79
2021/06/15 01:32:23;;;;;;;7.82;4.03;;;16.80;99.90;;;;;;5056317;28;20727;-79
2021/06/15 01:34:49;;;;;;;6.72;3.60;;;16.90;99.90;;;;;;5037655;28;20559;-80
2021/06/15 01:37:20;;;;;;;6.40;3.70;;;16.80;99.90;;;;;;5044045;28;20029;-79
2021/06/15 01:39:50;;;;;;;6.78;3.88;;;16.80;99.90;;;;;;5060019;28;20028;-79
2021/06/15 01:42:31;;;;;;;8.23;4.78;;;16.80;99.90;;;;;;5054077;28;20035;-79
2021/06/15 01:45:09;;;;;;;10.13;4.40;;;16.80;99.90;;;;;;5056612;28;20037;-79
2021/06/15 01:47:39;;;;;;;7.35;3.83;;;16.80;99.90;;;;;;5062237;28;20093;-78
2021/06/15 01:50:07;;;;;;;7.40;4.07;;;16.80;99.90;;;;;;5046102;28;20052;-79
2021/06/15 01:52:39;;;;;;;8.88;3.75;;;16.80;99.90;;;;;;5080469;28;20025;-79
2021/06/15 01:55:07;;;;;;;7.30;3.50;;;16.80;99.90;;;;;;5059224;28;20036;-79
2021/06/15 01:57:33;;;;;;;11.35;4.38;;;16.80;99.90;;;;;;5057840;28;20032;-79
2021/06/15 02:00:00;;;;;;;7.10;3.70;;;16.80;99.90;;;;;;5042417;28;20458;-78
2021/06/15 02:02:26;;;;;;;6.47;3.60;;;16.80;99.90;;;;;;5057534;28;20028;-79
2021/06/15 02:04:52;;;;;;;7.43;3.92;;;16.80;99.90;;;;;;5056934;28;20056;-79
2021/06/15 02:07:21;;;;;;;7.35;4.00;;;16.80;99.90;;;;;;5055838;28;20107;-78
2021/06/15 02:09:53;;;;;;;6.78;3.60;;;16.80;99.90;;;;;;5057430;28;20040;-77
2021/06/15 02:12:22;;;;;;;7.65;3.63;;;16.80;99.90;;;;;;5062563;28;20025;-78
2021/06/15 02:14:52;;;;;;;8.20;4.05;;;16.70;99.90;;;;;;5061861;28;20068;-78
2021/06/15 02:17:21;;;;;;;8.23;4.07;;;16.70;99.90;;;;;;5045340;28;20059;-78
2021/06/15 02:19:47;;;;;;;7.85;4.00;;;16.70;99.90;;;;;;5063474;28;20024;-78
2021/06/15 02:22:14;;;;;;;7.35;4.15;;;16.60;99.90;;;;;;5061897;28;20043;-78
2021/06/15 02:24:42;;;;;;;7.93;3.90;;;16.60;99.90;;;;;;5085648;28;20036;-78
2021/06/15 02:27:11;;;;;;;11.18;4.25;;;16.60;99.90;;;;;;5057806;28;20449;-78
2021/06/15 02:29:40;;;;;;;8.18;3.75;;;16.60;99.90;;;;;;5041110;28;20182;-78
2021/06/15 02:32:05;;;;;;;7.72;4.15;;;16.50;99.90;;;;;;5056804;28;20699;-78
2021/06/15 02:34:36;;;;;;;10.23;4.10;;;16.50;99.90;;;;;;5056489;28;20071;-78
2021/06/15 02:37:01;;;;;;;7.47;4.20;;;16.50;99.90;;;;;;5059755;28;20021;-78
2021/06/15 02:39:29;;;;;;;6.55;4.10;;;16.50;99.90;;;;;;5057711;28;20113;-78
2021/06/15 02:41:55;;;;;;;8.52;4.30;;;16.40;99.90;;;;;;5062503;28;20037;-78
2021/06/15 02:44:23;;;;;;;7.75;4.60;;;16.40;99.90;;;;;;5078198;28;20048;-78
2021/06/15 02:46:49;;;;;;;10.48;4.10;;;16.40;99.90;;;;;;5059090;28;20111;-78
2021/06/15 02:49:18;;;;;;;7.68;4.38;;;16.40;99.90;;;;;;5042276;28;20072;-78
2021/06/15 02:52:12;;;;;;;6.57;4.10;;;16.30;99.90;;;;;;5058723;28;20016;-78
2021/06/15 02:55:03;;;;;;;8.88;4.32;;;16.30;99.90;;;;;;5061892;28;20036;-78
2021/06/15 02:57:29;;;;;;;6.57;4.13;;;16.20;99.90;;;;;;5061037;28;20069;-78
2021/06/15 02:59:55;;;;;;;8.48;4.18;;;16.20;99.90;;;;;;5041504;28;20044;-78
2021/06/15 03:02:22;;;;;;;11.75;4.50;;;16.20;99.90;;;;;;5060120;28;20057;-78
2021/06/15 03:04:49;;;;;;;8.35;4.75;;;16.10;99.90;;;;;;5061971;28;20025;-78
2021/06/15 03:07:15;;;;;;;13.95;4.68;;;16.10;99.90;;;;;;5056185;28;20073;-78
2021/06/15 03:09:41;;;;;;;7.00;3.95;;;16.10;99.90;;;;;;5041751;28;20571;-78
2021/06/15 03:12:19;;;;;;;13.57;4.88;;;16.10;99.90;;;;;;5062956;28;20033;-78
2021/06/15 03:15:02;;;;;;;8.10;4.32;;;16.10;99.90;;;;;;5063940;28;20032;-79
2021/06/15 03:17:29;;;;;;;8.60;3.85;;;16.00;99.90;;;;;;5061313;28;20031;-78
2021/06/15 03:19:59;;;;;;;6.90;3.88;;;16.00;99.90;;;;;;5040933;28;20090;-78
2021/06/15 03:22:29;;;;;;;8.70;4.45;;;16.00;99.90;;;;;;5055073;28;20093;-78
2021/06/15 03:25:07;;;;;;;7.68;4.35;;;15.90;99.90;;;;;;5055600;28;20056;-78
2021/06/15 03:27:38;;;;;;;7.15;4.10;;;15.90;99.90;;;;;;5059195;28;20021;-78
2021/06/15 03:30:13;;;;;;;13.45;4.47;;;15.90;99.90;;;;;;5062021;28;20092;-78
2021/06/15 03:32:56;;;;;;;6.65;4.18;;;15.90;99.90;;;;;;5061695;28;20039;-79
2021/06/15 03:35:23;;;;;;;7.93;4.00;;;16.00;99.90;;;;;;5055343;28;20962;-78
2021/06/15 03:37:57;;;;;;;7.55;4.22;;;15.90;99.90;;;;;;5054479;28;20039;-78
2021/06/15 03:40:25;;;;;;;6.03;3.88;;;15.90;99.90;;;;;;5057429;28;20059;-78
2021/06/15 03:42:50;;;;;;;7.22;4.00;;;15.90;99.90;;;;;;5057569;28;20607;-78
2021/06/15 03:45:16;;;;;;;7.53;3.97;;;15.90;99.90;;;;;;5060922;28;20051;-78
2021/06/15 03:47:48;;;;;;;8.00;4.28;;;15.90;99.90;;;;;;5040839;28;20123;-78
2021/06/15 03:50:17;;;;;;;7.88;4.20;;;15.90;99.90;;;;;;5059146;28;20025;-78
2021/06/15 03:52:47;;;;;;;7.15;4.03;;;15.90;99.90;;;;;;5040240;28;20038;-78
2021/06/15 03:55:15;;;;;;;7.63;4.07;;;15.90;99.90;;;;;;5058965;28;20036;-78
2021/06/15 03:57:46;;;;;;;5.93;4.07;;;16.00;99.90;;;;;;5039639;28;20042;-78
2021/06/15 04:00:14;;;;;;;7.80;4.78;;;16.00;99.90;;;;;;5058413;28;20028;-78
2021/06/15 04:02:41;;;;;;;8.57;4.55;;;16.00;99.90;;;;;;5076869;28;20033;-78
2021/06/15 04:05:10;;;;;;;10.15;4.40;;;16.00;99.90;;;;;;5049865;28;20044;-78
2021/06/15 04:07:38;;;;;;;8.40;4.32;;;16.00;99.90;;;;;;5047891;28;20020;-78
2021/06/15 04:10:04;;;;;;;11.27;4.20;;;16.00;99.90;;;;;;5060367;28;20029;-78
2021/06/15 04:12:30;;;;;;;8.73;4.45;;;16.00;99.90;;;;;;5055634;28;20490;-79
2021/06/15 04:14:55;;;;;;;8.07;4.35;;;16.00;99.90;;;;;;5057761;28;20028;-78
2021/06/15 04:17:22;;;;;;;7.00;3.92;;;16.00;99.90;;;;;;5059692;28;20036;-79
2021/06/15 04:19:54;;;;;;;7.18;3.75;;;16.00;99.90;;;;;;5040889;28;20509;-78
2021/06/15 04:22:20;;;;;;;7.90;4.50;;;16.00;99.90;;;;;;5057498;28;20109;-78
2021/06/15 04:24:53;;;;;;;6.43;3.90;;;16.00;99.90;;;;;;5052923;28;20122;-79
2021/06/15 04:27:21;;;;;;;8.88;4.50;;;16.10;99.90;;;;;;5054420;28;20044;-79
2021/06/15 04:29:47;;;;;;;14.25;4.72;;;16.10;99.90;;;;;;5058336;28;20028;-78
2021/06/15 04:32:13;;;;;;;9.02;4.50;;;16.10;99.90;;;;;;5054056;28;20945;-79
2021/06/15 04:34:51;;;;;;;7.97;4.38;;;16.10;99.90;;;;;;5055589;28;20029;-79
2021/06/15 04:37:19;;;;;;;7.20;4.28;;;16.20;99.90;;;;;;5057109;28;20027;-79
2021/06/15 04:40:04;;;;;;;5.88;3.80;;;16.20;99.90;;;;;;5059855;28;20118;-79
2021/06/15 04:42:44;;;;;;;7.22;4.15;;;16.20;99.90;;;;;;5042241;28;20155;-79
2021/06/15 04:45:13;;;;;;;7.30;3.95;;;16.30;99.90;;;;;;5058235;28;20043;-79
2021/06/15 04:47:41;;;;;;;7.35;4.10;;;16.30;99.90;;;;;;5056741;28;20086;-79
2021/06/15 04:50:24;;;;;;;6.18;4.07;;;16.30;99.90;;;;;;5055760;28;20453;-79
2021/06/15 04:52:50;;;;;;;8.52;4.50;;;16.40;99.90;;;;;;5047425;28;20369;-79
2021/06/15 04:55:22;;;;;;;10.77;4.40;;;16.40;99.90;;;;;;5058677;28;20032;-79
2021/06/15 04:57:48;;;;;;;7.45;4.28;;;16.40;99.90;;;;;;5055411;28;20442;-79
2021/06/15 05:00:14;;;;;;;6.97;4.53;;;16.40;99.90;;;;;;5054618;28;20025;-79
2021/06/15 05:02:41;;;;;;;10.05;4.50;;;16.50;99.90;;;;;;5047948;28;20527;-79
2021/06/15 05:05:10;;;;;;;5.93;3.90;;;16.50;99.90;;;;;;5063326;28;20041;-79
2021/06/15 05:07:36;;;;;;;7.15;4.43;;;16.60;99.90;;;;;;5057823;28;20469;-79
2021/06/15 05:10:05;;;;;;;7.25;4.15;;;16.60;99.90;;;;;;5057673;28;20025;-79
2021/06/15 05:12:42;;;;;;;6.90;4.30;;;16.70;99.90;;;;;;5058078;28;20146;-79
2021/06/15 05:15:11;;;;;;;6.47;4.53;;;16.70;99.90;;;;;;5058763;28;20033;-79
2021/06/15 05:17:40;;;;;;;6.60;4.25;;;16.80;99.90;;;;;;5058721;28;20040;-79
2021/06/15 05:20:06;;;;;;;6.68;4.32;;;16.80;99.90;;;;;;5041251;28;20438;-79
2021/06/15 05:22:34;;;;;;;5.93;4.10;;;16.90;99.90;;;;;;5056612;28;20032;-79
2021/06/15 05:25:03;;;;;;;7.28;4.22;;;16.90;99.90;;;;;;5041520;28;20052;-79
2021/06/15 05:27:35;;;;;;;7.75;4.90;;;17.00;99.90;;;;;;5058821;28;20637;-79
2021/06/15 05:30:02;;;;;;;6.78;4.72;;;17.10;99.90;;;;;;5079951;28;20021;-79
2021/06/15 05:32:28;;;;;;;8.32;4.90;;;17.10;99.90;;;;;;5048927;28;20032;-79
2021/06/15 05:34:57;;;;;;;8.18;4.80;;;17.20;99.90;;;;;;5060215;28;20028;-79
2021/06/15 05:37:22;;;;;;;7.47;4.78;;;17.20;99.90;;;;;;5055742;28;20047;-79
2021/06/15 05:39:53;;;;;;;7.32;4.65;;;17.30;99.90;;;;;;5043275;28;20032;-79
2021/06/15 05:42:19;;;;;;;7.28;5.00;;;17.40;99.90;;;;;;5056464;28;20036;-79
2021/06/15 05:44:44;;;;;;;9.40;5.47;;;17.40;99.90;;;;;;5055843;28;20048;-79
2021/06/15 05:47:10;;;;;;;8.50;4.80;;;17.40;99.90;;;;;;5058704;28;20107;-79
2021/06/15 05:49:38;;;;;;;7.40;5.20;;;17.50;99.90;;;;;;5047173;28;20870;-79
2021/06/15 05:52:06;;;;;;;6.82;4.80;;;17.60;99.90;;;;;;5056901;28;20366;-79
2021/06/15 05:54:31;;;;;;;13.32;5.57;;;17.60;99.90;;;;;;5057744;28;20029;-79
2021/06/15 05:56:59;;;;;;;8.85;5.50;;;17.60;99.90;;;;;;5060830;28;20442;-79
2021/06/15 05:59:25;;;;;;;10.32;5.65;;;17.70;99.90;;;;;;5059911;28;20025;-81
2021/06/15 06:01:51;;;;;;;8.80;5.72;;;17.70;99.90;;;;;;5058308;28;20038;-79
2021/06/15 06:04:21;;;;;;;11.20;6.30;;;17.80;99.90;;;;;;5056645;28;20032;-80
2021/06/15 06:09:36;;;;;;;14.52;12.75;;;17.80;99.90;;;;;;5060443;28;20051;-76
2021/06/15 06:12:08;;;;;;;15.50;9.82;;;17.90;99.90;;;;;;5059143;28;20377;-80
2021/06/15 06:14:34;;;;;;;11.15;7.68;;;17.90;99.90;;;;;;5057789;28;20036;-79
2021/06/15 06:17:07;;;;;;;10.00;7.70;;;18.00;99.90;;;;;;5055619;28;20028;-79
2021/06/15 06:19:34;;;;;;;9.73;6.75;;;18.10;99.90;;;;;;5057194;28;20044;-79
2021/06/15 06:22:00;;;;;;;11.43;6.95;;;18.10;99.90;;;;;;5056828;28;20016;-79
2021/06/15 06:24:28;;;;;;;9.85;5.82;;;18.20;99.90;;;;;;5056147;28;20076;-79
2021/06/15 06:26:53;;;;;;;7.88;6.10;;;18.20;99.90;;;;;;5044377;28;20033;-75
2021/06/15 06:29:20;;;;;;;9.95;6.15;;;18.30;99.90;;;;;;5057976;28;20039;-75
2021/06/15 06:31:46;;;;;;;11.27;7.63;;;18.30;99.90;;;;;;5061888;28;20116;-74
2021/06/15 06:34:12;;;;;;;12.10;7.18;;;18.40;99.90;;;;;;5062356;28;20246;-80
2021/06/15 06:36:40;;;;;;;13.63;10.70;;;18.40;99.90;;;;;;5061074;28;20595;-79
2021/06/15 06:39:09;;;;;;;11.30;6.97;;;18.50;99.90;;;;;;5062110;28;20115;-79
2021/06/15 06:41:35;;;;;;;10.57;6.30;;;18.60;99.90;;;;;;5076986;28;20028;-79
2021/06/15 06:44:00;;;;;;;10.40;6.65;;;18.60;99.90;;;;;;5061283;28;20123;-81
2021/06/15 06:46:26;;;;;;;10.52;5.88;;;18.70;99.90;;;;;;5060097;28;20107;-79
2021/06/15 06:48:52;;;;;;;8.43;5.93;;;18.70;99.90;;;;;;5060326;28;20182;-80
2021/06/15 06:51:19;;;;;;;9.07;6.05;;;18.80;99.90;;;;;;5059749;28;20439;-80
2021/06/15 06:53:46;;;;;;;9.32;5.90;;;18.80;99.90;;;;;;5062644;28;20031;-78
2021/06/15 06:56:13;;;;;;;9.63;6.00;;;18.90;99.90;;;;;;5059525;28;20103;-79
2021/06/15 06:58:43;;;;;;;10.48;6.18;;;18.90;99.90;;;;;;5047550;28;20044;-79
2021/06/15 07:01:09;;;;;;;9.55;5.50;;;19.00;99.90;;;;;;5063895;28;20039;-80
2021/06/15 07:03:35;;;;;;;9.23;6.00;;;19.10;99.90;;;;;;5063014;28;20040;-79
2021/06/15 07:06:00;;;;;;;9.27;5.90;;;19.10;99.90;;;;;;5063429;28;20036;-80
2021/06/15 07:08:28;;;;;;;7.82;5.30;;;19.20;99.90;;;;;;5060713;28;20024;-77
2021/06/15 07:10:57;;;;;;;8.77;5.68;;;19.20;99.90;;;;;;5062162;28;20513;-75
2021/06/15 07:13:23;;;;;;;16.17;12.52;;;19.30;99.90;;;;;;5061695;28;21114;-80
2021/06/15 07:15:51;;;;;;;15.68;8.05;;;19.40;99.90;;;;;;5063755;28;20104;-81
2021/06/15 07:18:16;;;;;;;7.53;4.93;;;19.50;99.90;;;;;;5062218;28;20033;-80
2021/06/15 07:20:42;;;;;;;8.77;5.40;;;19.60;99.90;;;;;;5059690;28;20057;-78
2021/06/15 07:23:10;;;;;;;7.97;5.47;;;19.60;99.90;;;;;;5076956;28;20037;-79
2021/06/15 07:25:38;;;;;;;9.63;5.68;;;19.70;99.90;;;;;;5061909;28;20038;-79
2021/06/15 07:28:04;;;;;;;6.55;5.20;;;19.80;99.90;;;;;;5064187;28;20040;-80
2021/06/15 07:30:30;;;;;;;8.15;5.10;;;20.00;99.90;;;;;;5060709;28;20024;-78
2021/06/15 07:32:58;;;;;;;10.10;5.40;;;20.10;99.90;;;;;;5081595;28;20365;-80
2021/06/15 07:35:26;;;;;;;8.63;5.38;;;20.20;99.90;;;;;;5060532;28;20234;-77
2021/06/15 07:37:52;;;;;;;9.45;5.70;;;20.30;99.90;;;;;;5061868;28;20041;-77
2021/06/15 07:40:24;;;;;;;9.93;5.50;;;20.40;99.90;;;;;;5061638;28;20025;-78
2021/06/15 07:42:51;;;;;;;9.02;5.55;;;20.50;99.90;;;;;;5064378;28;20032;-78
2021/06/15 07:45:16;;;;;;;9.52;5.97;;;20.60;99.90;;;;;;5046878;28;20040;-77
2021/06/15 07:47:42;;;;;;;12.05;5.85;;;20.80;99.90;;;;;;5056847;28;20035;-77
2021/06/15 07:50:08;;;;;;;9.20;5.63;;;20.90;99.90;;;;;;5062824;28;20199;-78
2021/06/15 07:52:34;;;;;;;9.63;5.68;;;21.10;99.90;;;;;;5061484;28;20024;-78
2021/06/15 07:55:05;;;;;;;9.82;5.35;;;21.20;99.90;;;;;;5062876;28;20028;-78
2021/06/15 07:57:33;;;;;;;9.15;5.88;;;21.40;99.90;;;;;;5061127;28;20035;-77
2021/06/15 07:59:59;;;;;;;9.45;5.50;;;21.50;99.90;;;;;;5059641;28;20028;-80
2021/06/15 08:02:29;;;;;;;8.77;5.60;;;21.60;99.90;;;;;;5077406;28;20088;-78
2021/06/15 08:04:55;;;;;;;9.75;5.88;;;21.80;99.90;;;;;;5058597;28;20025;-78
2021/06/15 08:07:20;;;;;;;8.68;5.20;;;22.00;99.90;;;;;;5059674;28;20028;-78
2021/06/15 08:09:50;;;;;;;10.52;5.57;;;22.10;99.90;;;;;;5060225;28;20081;-78
2021/06/15 08:12:17;;;;;;;7.85;5.15;;;22.30;99.90;;;;;;5077401;28;20032;-77
2021/06/15 08:14:46;;;;;;;7.82;5.10;;;22.40;99.90;;;;;;5061936;28;20075;-73
2021/06/15 08:17:14;;;;;;;10.18;5.85;;;22.60;99.90;;;;;;5061046;28;20028;-74
2021/06/15 08:19:39;;;;;;;8.55;5.10;;;22.70;99.90;;;;;;5065534;28;20378;-78
2021/06/15 08:22:07;;;;;;;11.88;6.20;;;22.70;99.90;;;;;;5062463;28;20029;-78
2021/06/15 08:24:35;;;;;;;10.60;5.93;;;22.90;99.90;;;;;;5060092;28;20052;-77
2021/06/15 08:27:05;;;;;;;8.52;4.97;;;23.00;99.90;;;;;;5064615;28;20029;-78
2021/06/15 08:29:31;;;;;;;10.23;5.40;;;23.10;99.90;;;;;;5071193;28;20024;-78
2021/06/15 08:32:04;;;;;;;13.15;5.45;;;23.20;99.90;;;;;;5063198;28;20040;-77
2021/06/15 08:34:30;;;;;;;7.57;4.70;;;23.40;99.90;;;;;;5061655;28;20029;-77
2021/06/15 08:36:55;;;;;;;7.85;4.72;;;23.40;99.90;;;;;;5062344;28;20416;-77
2021/06/15 08:39:21;;;;;;;12.10;5.43;;;23.40;99.90;;;;;;5061129;28;20028;-78
2021/06/15 08:41:46;;;;;;;11.50;5.00;;;23.50;99.90;;;;;;5059448;28;20024;-78
2021/06/15 08:44:12;;;;;;;8.77;5.00;;;23.50;98.20;;;;;;5059934;28;20024;-77
2021/06/15 08:46:41;;;;;;;9.55;4.82;;;23.50;99.90;;;;;;5056181;28;20074;-77
2021/06/15 08:49:06;;;;;;;10.23;4.90;;;23.60;99.90;;;;;;5057888;28;20521;-78
2021/06/15 08:51:33;;;;;;;8.60;5.40;;;23.70;99.90;;;;;;5059323;28;20028;-77
2021/06/15 08:54:07;;;;;;;9.73;4.65;;;23.70;99.90;;;;;;5059149;28;20039;-77
2021/06/15 08:56:37;;;;;;;8.95;6.30;;;23.70;99.90;;;;;;5059735;28;20039;-77
2021/06/15 08:59:31;;;;;;;10.45;5.57;;;23.80;99.90;;;;;;5060777;28;20035;-76
2021/06/15 09:02:09;;;;;;;9.25;5.03;;;24.00;99.90;;;;;;5059176;28;20054;-77
2021/06/15 09:04:38;;;;;;;12.90;5.80;;;24.00;99.90;;;;;;5057883;28;20039;-79
2021/06/15 09:07:04;;;;;;;8.02;4.57;;;24.10;99.90;;;;;;5047340;28;20025;-77
2021/06/15 09:09:48;;;;;;;11.02;6.57;;;24.20;99.90;;;;;;5059339;28;20031;-73
2021/06/15 09:12:21;;;;;;;20.20;14.15;;;24.40;99.90;;;;;;5059996;28;20135;-74
2021/06/15 09:14:54;;;;;;;11.27;6.03;;;24.40;99.90;;;;;;5059663;28;20036;-79
2021/06/15 09:17:29;;;;;;;8.57;5.35;;;24.60;97.80;;;;;;5056009;28;20109;-78
2021/06/15 09:19:56;;;;;;;11.85;5.57;;;24.60;98.90;;;;;;5059251;28;20059;-81
2021/06/15 09:22:25;;;;;;;8.23;5.00;;;24.80;99.90;;;;;;5054607;28;20025;-76
2021/06/15 09:24:51;;;;;;;10.93;4.97;;;24.80;99.90;;;;;;5057822;28;20561;-78
2021/06/15 09:27:17;;;;;;;7.28;4.38;;;24.90;96.80;;;;;;5046120;28;20033;-78
2021/06/15 09:29:48;;;;;;;9.00;5.10;;;24.90;99.50;;;;;;5057155;28;20115;-78
2021/06/15 09:32:21;;;;;;;11.23;5.07;;;24.90;97.30;;;;;;5056666;28;20040;-80
2021/06/15 09:34:50;;;;;;;9.30;4.93;;;25.00;95.40;;;;;;5060528;28;20063;-79
2021/06/15 09:37:18;;;;;;;8.93;4.70;;;25.10;95.80;;;;;;5058985;28;20098;-79
2021/06/15 09:39:44;;;;;;;7.30;4.18;;;25.20;99.90;;;;;;5058605;28;20029;-79
2021/06/15 09:42:14;;;;;;;9.60;4.80;;;25.30;97.50;;;;;;5056571;28;20040;-79
2021/06/15 09:44:40;;;;;;;11.15;4.85;;;25.40;99.90;;;;;;5058778;28;20087;-79
2021/06/15 09:47:07;;;;;;;6.05;4.30;;;25.40;96.10;;;;;;5059688;28;20447;-79
2021/06/15 09:49:39;;;;;;;7.40;4.40;;;25.40;99.70;;;;;;5057875;28;20025;-78
2021/06/15 09:52:27;;;;;;;8.70;4.40;;;25.50;99.20;;;;;;5055291;28;20059;-78
2021/06/15 09:54:59;;;;;;;12.48;5.50;;;25.60;98.90;;;;;;5061759;28;20032;-79
2021/06/15 09:57:26;;;;;;;11.57;5.13;;;25.60;96.00;;;;;;5057896;28;20480;-79
2021/06/15 10:00:13;;;;;;;9.20;4.90;;;25.60;94.20;;;;;;5058054;28;20025;-79
2021/06/15 10:02:52;;;;;;;7.95;4.75;;;25.70;92.70;;;;;;5059449;28;20099;-78
2021/06/15 10:05:26;;;;;;;11.07;5.28;;;25.70;94.00;;;;;;5059509;28;20021;-81
2021/06/15 10:07:54;;;;;;;7.95;4.38;;;25.70;90.80;;;;;;5065020;28;20032;-78
2021/06/15 10:10:21;;;;;;;8.30;5.03;;;25.70;90.30;;;;;;5065477;28;20086;-79
2021/06/15 10:12:47;;;;;;;11.13;5.47;;;25.80;90.90;;;;;;5059332;28;20021;-81
2021/06/15 10:15:13;;;;;;;10.77;5.22;;;25.90;91.50;;;;;;5065615;28;20040;-78
2021/06/15 10:17:42;;;;;;;9.32;4.63;;;26.00;88.80;;;;;;5060281;28;20078;-78
2021/06/15 10:20:13;;;;;;;10.25;5.00;;;26.00;82.90;;;;;;5064231;28;20458;-78
2021/06/15 10:22:40;;;;;;;7.00;3.78;;;26.10;85.30;;;;;;5064666;28;20064;-75
2021/06/15 10:25:07;;;;;;;12.13;5.22;;;26.10;83.60;;;;;;5059793;28;20044;-79
2021/06/15 10:27:32;;;;;;;6.60;3.80;;;26.20;90.80;;;;;;5059862;28;20402;-77
2021/06/15 10:29:58;;;;;;;6.75;3.92;;;26.40;82.90;;;;;;5066914;28;20031;-79
2021/06/15 10:32:27;;;;;;;7.40;4.22;;;26.40;85.30;;;;;;5059649;28;20497;-78
2021/06/15 10:35:12;;;;;;;8.82;4.13;;;26.40;89.40;;;;;;5060873;28;20385;-77
2021/06/15 10:37:38;;;;;;;8.50;4.05;;;26.60;74.50;;;;;;5079884;28;20025;-77
2021/06/15 10:40:24;;;;;;;8.27;3.88;;;26.60;81.00;;;;;;5062659;28;20101;-78
2021/06/15 10:43:11;;;;;;;9.68;4.30;;;26.80;73.60;;;;;;5062068;28;20174;-79
2021/06/15 10:45:39;;;;;;;7.38;4.03;;;26.90;75.60;;;;;;5062795;28;20024;-74
2021/06/15 10:48:05;;;;;;;10.60;3.55;;;26.90;72.20;;;;;;5062874;28;20048;-80
2021/06/15 10:50:44;;;;;;;5.93;3.47;;;26.90;70.00;;;;;;5061922;28;20028;-76
2021/06/15 10:53:10;;;;;;;8.52;3.65;;;26.90;78.20;;;;;;5063745;28;20044;-75
2021/06/15 10:55:51;;;;;;;10.43;4.00;;;27.00;81.10;;;;;;5058623;28;20071;-78
2021/06/15 10:58:29;;;;;;;9.00;4.10;;;27.10;76.10;;;;;;5065158;28;20028;-76
2021/06/15 11:00:55;;;;;;;8.90;4.15;;;27.20;76.30;;;;;;5059614;28;20060;-74
2021/06/15 11:03:23;;;;;;;6.70;4.18;;;27.20;72.90;;;;;;5060996;28;20067;-72
2021/06/15 11:05:53;;;;;;;8.05;4.25;;;27.30;74.80;;;;;;5059339;28;20020;-71
2021/06/15 11:08:27;;;;;;;8.57;4.15;;;27.40;75.30;;;;;;5060686;28;20017;-74
2021/06/15 11:11:00;;;;;;;13.50;4.53;;;27.50;71.40;;;;;;5061285;28;20021;-77
2021/06/15 11:13:44;;;;;;;8.18;4.00;;;27.60;69.90;;;;;;5044387;28;20035;-75
2021/06/15 11:16:37;;;;;;;7.10;4.38;;;27.80;81.60;;;;;;5063250;28;20090;-75
2021/06/15 11:19:12;;;;;;;8.48;4.22;;;27.80;74.70;;;;;;5062690;28;20024;-75
2021/06/15 11:22:01;;;;;;;9.80;4.60;;;27.70;78.10;;;;;;5063222;28;20040;-76
2021/06/15 11:25:03;;;;;;;7.60;4.10;;;27.80;69.40;;;;;;5061519;28;20555;-74
2021/06/15 11:27:29;;;;;;;;;;;27.90;74.40;;;;;;5061384;28;20064;-76
2021/06/15 11:30:15;;;;;;;7.65;4.20;;;28.00;72.30;;;;;;5059857;28;20385;-74
2021/06/15 11:32:58;;;;;;;9.32;4.50;;;28.00;73.40;;;;;;5081305;28;20036;-75
2021/06/15 11:35:27;;;;;;;7.10;4.32;;;28.10;69.70;;;;;;5046869;28;20124;-75
2021/06/15 11:37:53;;;;;;;11.00;4.72;;;28.10;72.50;;;;;;5058524;28;20501;-75
2021/06/15 11:40:22;;;;;;;7.95;4.40;;;28.20;71.60;;;;;;5060750;28;20116;-75
2021/06/15 11:42:49;;;;;;;12.70;5.25;;;28.20;71.90;;;;;;5064571;28;20028;-75
2021/06/15 11:45:17;;;;;;;11.13;4.63;;;28.20;73.10;;;;;;5062109;28;20024;-75
2021/06/15 11:47:55;;;;;;;7.60;4.53;;;28.30;67.20;;;;;;5060768;28;20029;-77
2021/06/15 11:50:28;;;;;;;9.63;4.88;;;28.30;73.60;;;;;;5059852;28;20036;-76
2021/06/15 11:53:09;;;;;;;8.82;4.50;;;28.40;78.60;;;;;;5046229;28;20039;-75
2021/06/15 11:55:40;;;;;;;7.03;4.63;;;28.30;73.80;;;;;;5061874;28;20036;-75
2021/06/15 11:58:06;;;;;;;14.05;5.28;;;28.30;73.50;;;;;;5061008;28;20046;-77
2021/06/15 12:00:34;;;;;;;11.07;5.15;;;28.30;76.00;;;;;;5058229;28;20024;-76
2021/06/15 12:03:09;;;;;;;8.77;4.93;;;28.20;75.20;;;;;;5045787;28;20436;-75
2021/06/15 12:05:35;;;;;;;8.55;4.68;;;28.20;74.00;;;;;;5061880;28;20017;-75
2021/06/15 12:08:03;;;;;;;12.75;5.43;;;28.20;77.80;;;;;;5062488;28;20381;-75
2021/06/15 12:10:31;;;;;;;7.68;4.90;;;28.20;84.00;;;;;;5061448;28;20032;-75
2021/06/15 12:13:00;;;;;;;11.18;4.93;;;28.30;80.40;;;;;;5059361;28;20101;-75
2021/06/15 12:15:52;;;;;;;10.68;5.13;;;28.50;78.80;;;;;;5079743;28;20050;-75
2021/06/15 12:18:21;;;;;;;9.00;4.80;;;28.60;66.90;;;;;;5057644;28;20024;-74
2021/06/15 12:20:46;;;;;;;12.82;5.57;;;28.70;67.80;;;;;;5060884;28;20028;-75
2021/06/15 12:23:28;;;;;;;11.90;4.80;;;28.80;74.20;;;;;;5060760;28;20028;-73
2021/06/15 12:25:56;;;;;;;8.02;4.70;;;29.00;71.50;;;;;;5075761;28;20128;-75
2021/06/15 12:28:23;;;;;;;7.28;4.60;;;29.10;75.70;;;;;;5062875;28;20036;-71
2021/06/15 12:31:14;;;;;;;8.80;4.55;;;29.20;71.40;;;;;;5059495;28;20074;-71
2021/06/15 12:33:41;;;;;;;7.93;5.15;;;29.20;72.40;;;;;;5059985;28;20082;-74
2021/06/15 12:36:14;;;;;;;7.72;5.18;;;29.20;70.70;;;;;;5059700;28;20036;-74
2021/06/15 12:38:42;;;;;;;9.05;5.28;;;29.20;75.90;;;;;;5060062;28;20024;-74
2021/06/15 12:41:22;;;;;;;8.50;5.00;;;29.20;74.60;;;;;;5060551;28;20043;-74
2021/06/15 12:43:48;;;;;;;10.48;5.20;;;29.00;67.70;;;;;;5059957;28;20055;-74
2021/06/15 12:46:18;;;;;;;10.05;5.82;;;28.90;74.90;;;;;;5043225;28;20506;-74
2021/06/15 12:49:19;;;;;;;11.23;5.93;;;29.00;77.60;;;;;;5061257;28;20025;-75
2021/06/15 12:51:49;;;;;;;9.23;5.80;;;29.00;81.80;;;;;;5076173;28;20064;-74
2021/06/15 12:54:16;;;;;;;12.85;5.80;;;29.00;83.40;;;;;;5059442;28;20036;-74
2021/06/15 12:56:42;;;;;;;10.80;5.15;;;28.90;82.40;;;;;;5050263;28;20044;-74
2021/06/15 12:59:13;;;;;;;24.13;10.52;;;28.80;77.70;;;;;;5059359;28;20339;-74
2021/06/15 13:01:40;;;;;;;18.08;7.50;;;28.80;80.90;;;;;;5059582;28;20157;-74